Shinsei Maru — JD2188 — position and weather

sailwx.info

Track history (hours):
 
Tides and Currents Weather Stations Pressure Air Temp Water Temp Dewpoint Dewpoint Depression Visibility Wind Speed Wind Dir Waves Ship Positions

Shinsei Maru

Last reported at 2014-Jul-29 22:21 UTC. Time now 2014-Jul-30 23:26 UTC.
Position N 34°32' E 138°36'.

Length 104 m.

Type: Tanker. MMSI: 431301775.

Date/timePositionNaut miles runAvg speedWind from/ knotsBaromVisibWave heightAir tempDewpointWater temp
2014-Jul-29 22:21N 34°32' E 138°36'4213.0
2014-Jul-29 19:08N 34°56' E 139°18'813.3
2014-Jul-29 18:32N 35°00' E 139°26'1313.8
2014-Jul-29 17:33N 35°07' E 139°41'1111.5
2014-Jul-29 16:34N 35°18' E 139°44'1111.1
2014-Jul-29 15:33N 35°29' E 139°47'3 2.9
2014-Jul-29 14:33N 35°31' E 139°46'0 0.0
2014-Jul-29 13:33N 35°31' E 139°46'0 0.0
2014-Jul-29 12:33N 35°31' E 139°46'0 0.1
2014-Jul-29 11:33N 35°31' E 139°46'0 0.0
2014-Jul-29 10:28N 35°31' E 139°46'0 0.0
2014-Jul-29 09:31N 35°31' E 139°46'0 0.0
2014-Jul-29 08:33N 35°31' E 139°46'5 4.6
2014-Jul-29 07:33N 35°27' E 139°44'3 3.1
2014-Jul-29 06:33N 35°24' E 139°45'0 0.0
2014-Jul-29 05:33N 35°24' E 139°45'0 0.0
2014-Jul-29 04:33N 35°24' E 139°45'0 0.1
2014-Jul-29 03:33N 35°24' E 139°45'3 2.5
2014-Jul-29 02:33N 35°22' E 139°44'1211.9
2014-Jul-29 01:33N 35°10' E 139°47'1413.9
2014-Jul-29 00:33N 34°56' E 139°44'1312.2
2014-Jul-28 23:32N 34°52' E 139°58'1212.7
2014-Jul-28 22:33N 34°59' E 140°12'1613.0
2014-Jul-28 21:20N 35°07' E 140°28'1211.7
2014-Jul-28 20:20N 35°16' E 140°38'1114.5
2014-Jul-28 19:33N 35°25' E 140°45'1514.6
2014-Jul-28 18:31N 35°38' E 140°55'1414.3
2014-Jul-28 17:33N 35°51' E 141°02'4714.7
2014-Jul-28 14:22N 36°36' E 141°13'59 2.4
2014-Jul-27 14:13N 35°40' E 140°56'913.6
2014-Jul-27 13:33N 35°32' E 140°49'5115.3
2014-Jul-27 10:14N 34°55' E 140°06'1715.5
2014-Jul-27 09:09N 34°52' E 139°46'814.0
2014-Jul-27 08:33N 34°59' E 139°42'1312.7
2014-Jul-27 07:33N 35°11' E 139°46'1212.1
2014-Jul-27 06:34N 35°23' E 139°42'9 8.5
2014-Jul-27 05:31N 35°31' E 139°46'0 0.0
2014-Jul-27 04:31N 35°31' E 139°46'0 0.0
2014-Jul-27 03:31N 35°31' E 139°46'0 0.0
2014-Jul-27 02:31N 35°31' E 139°46'0 0.0
2014-Jul-27 01:32N 35°31' E 139°46'0 0.0
2014-Jul-27 00:32N 35°31' E 139°46'0 0.0
2014-Jul-26 23:32N 35°31' E 139°46'0 0.0
2014-Jul-26 22:32N 35°31' E 139°46'1 1.0
2014-Jul-26 21:34N 35°30' E 139°45'6 5.7
2014-Jul-26 20:31N 35°24' E 139°46'0 0.0
2014-Jul-26 19:31N 35°24' E 139°46'0 0.0
2014-Jul-26 18:31N 35°24' E 139°46'0 0.0
2014-Jul-26 17:31N 35°24' E 139°46'0 0.0
2014-Jul-26 16:31N 35°24' E 139°46'0 0.0
2014-Jul-26 15:31N 35°24' E 139°46'0 0.0
2014-Jul-26 14:31N 35°24' E 139°46'0 0.0
2014-Jul-26 13:31N 35°24' E 139°46'0 0.0
2014-Jul-26 12:32N 35°24' E 139°46'0 0.0
2014-Jul-26 11:34N 35°24' E 139°46'0 0.0
2014-Jul-26 10:31N 35°24' E 139°46'0 0.0
2014-Jul-26 09:31N 35°24' E 139°46'0 0.0
2014-Jul-26 08:31N 35°24' E 139°46'0 0.2
2014-Jul-26 07:34N 35°24' E 139°46'1111.5
2014-Jul-26 06:33N 35°13' E 139°47'1514.8
2014-Jul-26 05:33N 34°59' E 139°42'1411.3
2014-Jul-26 04:19N 34°51' E 139°56'911.6
2014-Jul-26 03:33N 34°55' E 140°06'1111.2
2014-Jul-26 02:33N 35°00' E 140°18'1211.7
2014-Jul-26 01:32N 35°07' E 140°30'1713.6
2014-Jul-26 00:19N 35°20' E 140°41'5314.0
2014-Jul-25 20:31N 36°10' E 141°06'  
2014-Jul-20 14:23N 34°52' E 139°49'1214.0
2014-Jul-20 13:33N 35°02' E 139°42'1413.6
2014-Jul-20 12:34N 35°15' E 139°46'1111.1
2014-Jul-20 11:34N 35°26' E 139°46'1312.8
2014-Jul-20 10:33N 35°31' E 140°01'2 1.5
2014-Jul-20 09:32N 35°31' E 140°02'0 0.0
2014-Jul-20 08:32N 35°31' E 140°02'0 0.0
2014-Jul-20 07:32N 35°31' E 140°02'0 0.0
2014-Jul-20 06:32N 35°31' E 140°03'0 0.0
2014-Jul-20 05:31N 35°31' E 140°02'0 0.1
2014-Jul-20 04:34N 35°31' E 140°02'1010.2
2014-Jul-20 03:34N 35°28' E 139°50'1211.8
2014-Jul-20 02:33N 35°16' E 139°46'1313.3
2014-Jul-20 01:33N 35°03' E 139°45'1210.5
2014-Jul-20 00:23N 34°52' E 139°52'1113.4
2014-Jul-19 23:33N 34°57' E 140°04'1413.8
2014-Jul-19 22:33N 35°03' E 140°19'  
Track history (hours):
 
Tides and Currents Weather Stations Pressure Air Temp Water Temp Dewpoint Dewpoint Depression Visibility Wind Speed Wind Dir Waves Ship Positions

Shinsei Maru

Last reported at 2014-Jul-29 22:21 UTC. Time now 2014-Jul-30 23:26 UTC.
Position N 34°32' E 138°36'.

Length 104 m.

Type: Tanker. MMSI: 431301775.

Date/timePositionNaut miles runAvg speedWind from/ knotsBaromVisibWave heightAir tempDewpointWater temp
2014-Jul-29 22:21N 34°32' E 138°36'4213.0
2014-Jul-29 19:08N 34°56' E 139°18'813.3
2014-Jul-29 18:32N 35°00' E 139°26'1313.8
2014-Jul-29 17:33N 35°07' E 139°41'1111.5
2014-Jul-29 16:34N 35°18' E 139°44'1111.1
2014-Jul-29 15:33N 35°29' E 139°47'3 2.9
2014-Jul-29 14:33N 35°31' E 139°46'0 0.0
2014-Jul-29 13:33N 35°31' E 139°46'0 0.0
2014-Jul-29 12:33N 35°31' E 139°46'0 0.1
2014-Jul-29 11:33N 35°31' E 139°46'0 0.0
2014-Jul-29 10:28N 35°31' E 139°46'0 0.0
2014-Jul-29 09:31N 35°31' E 139°46'0 0.0
2014-Jul-29 08:33N 35°31' E 139°46'5 4.6
2014-Jul-29 07:33N 35°27' E 139°44'3 3.1
2014-Jul-29 06:33N 35°24' E 139°45'0 0.0
2014-Jul-29 05:33N 35°24' E 139°45'0 0.0
2014-Jul-29 04:33N 35°24' E 139°45'0 0.1
2014-Jul-29 03:33N 35°24' E 139°45'3 2.5
2014-Jul-29 02:33N 35°22' E 139°44'1211.9
2014-Jul-29 01:33N 35°10' E 139°47'1413.9
2014-Jul-29 00:33N 34°56' E 139°44'1312.2
2014-Jul-28 23:32N 34°52' E 139°58'1212.7
2014-Jul-28 22:33N 34°59' E 140°12'1613.0
2014-Jul-28 21:20N 35°07' E 140°28'1211.7
2014-Jul-28 20:20N 35°16' E 140°38'1114.5
2014-Jul-28 19:33N 35°25' E 140°45'1514.6
2014-Jul-28 18:31N 35°38' E 140°55'1414.3
2014-Jul-28 17:33N 35°51' E 141°02'4714.7
2014-Jul-28 14:22N 36°36' E 141°13'59 2.4
2014-Jul-27 14:13N 35°40' E 140°56'913.6
2014-Jul-27 13:33N 35°32' E 140°49'5115.3
2014-Jul-27 10:14N 34°55' E 140°06'1715.5
2014-Jul-27 09:09N 34°52' E 139°46'814.0
2014-Jul-27 08:33N 34°59' E 139°42'1312.7
2014-Jul-27 07:33N 35°11' E 139°46'1212.1
2014-Jul-27 06:34N 35°23' E 139°42'9 8.5
2014-Jul-27 05:31N 35°31' E 139°46'0 0.0
2014-Jul-27 04:31N 35°31' E 139°46'0 0.0
2014-Jul-27 03:31N 35°31' E 139°46'0 0.0
2014-Jul-27 02:31N 35°31' E 139°46'0 0.0
2014-Jul-27 01:32N 35°31' E 139°46'0 0.0
2014-Jul-27 00:32N 35°31' E 139°46'0 0.0
2014-Jul-26 23:32N 35°31' E 139°46'0 0.0
2014-Jul-26 22:32N 35°31' E 139°46'1 1.0
2014-Jul-26 21:34N 35°30' E 139°45'6 5.7
2014-Jul-26 20:31N 35°24' E 139°46'0 0.0
2014-Jul-26 19:31N 35°24' E 139°46'0 0.0
2014-Jul-26 18:31N 35°24' E 139°46'0 0.0
2014-Jul-26 17:31N 35°24' E 139°46'0 0.0
2014-Jul-26 16:31N 35°24' E 139°46'0 0.0
2014-Jul-26 15:31N 35°24' E 139°46'0 0.0
2014-Jul-26 14:31N 35°24' E 139°46'0 0.0
2014-Jul-26 13:31N 35°24' E 139°46'0 0.0
2014-Jul-26 12:32N 35°24' E 139°46'0 0.0
2014-Jul-26 11:34N 35°24' E 139°46'0 0.0
2014-Jul-26 10:31N 35°24' E 139°46'0 0.0
2014-Jul-26 09:31N 35°24' E 139°46'0 0.0
2014-Jul-26 08:31N 35°24' E 139°46'0 0.2
2014-Jul-26 07:34N 35°24' E 139°46'1111.5
2014-Jul-26 06:33N 35°13' E 139°47'1514.8
2014-Jul-26 05:33N 34°59' E 139°42'1411.3
2014-Jul-26 04:19N 34°51' E 139°56'911.6
2014-Jul-26 03:33N 34°55' E 140°06'1111.2
2014-Jul-26 02:33N 35°00' E 140°18'1211.7
2014-Jul-26 01:32N 35°07' E 140°30'1713.6
2014-Jul-26 00:19N 35°20' E 140°41'5314.0
2014-Jul-25 20:31N 36°10' E 141°06'  
2014-Jul-20 14:23N 34°52' E 139°49'1214.0
2014-Jul-20 13:33N 35°02' E 139°42'1413.6
2014-Jul-20 12:34N 35°15' E 139°46'1111.1
2014-Jul-20 11:34N 35°26' E 139°46'1312.8
2014-Jul-20 10:33N 35°31' E 140°01'2 1.5
2014-Jul-20 09:32N 35°31' E 140°02'0 0.0
2014-Jul-20 08:32N 35°31' E 140°02'0 0.0
2014-Jul-20 07:32N 35°31' E 140°02'0 0.0
2014-Jul-20 06:32N 35°31' E 140°03'0 0.0
2014-Jul-20 05:31N 35°31' E 140°02'0 0.1
2014-Jul-20 04:34N 35°31' E 140°02'1010.2
2014-Jul-20 03:34N 35°28' E 139°50'1211.8
2014-Jul-20 02:33N 35°16' E 139°46'1313.3
2014-Jul-20 01:33N 35°03' E 139°45'1210.5
2014-Jul-20 00:23N 34°52' E 139°52'1113.4
2014-Jul-19 23:33N 34°57' E 140°04'1413.8
2014-Jul-19 22:33N 35°03' E 140°19'  

Dump ship's entire track history